Time;durP1;ratioP1;P1;durP2;ratioP2;P2;SDS_P1;SDS_P2;PMS_P1;PMS_P2;Temp;Humidity;BMP_temperature;BMP_pressure;BME280_temperature;BME280_humidity;BME280_pressure;Samples;Min_cycle;Max_cycle;Signal;HPM_P1;HPM_P2
2021/08/22 00:00:51;;;;;;;181.25;110.18;;;;;;;;;;5166449;27;20096;-86
2021/08/22 00:03:23;;;;;;;180.05;106.20;;;;;;;;;;5201694;27;20069;-85
2021/08/22 00:05:54;;;;;;;179.23;106.07;;;;;;;;;;5183984;27;20778;-84
2021/08/22 00:08:23;;;;;;;185.30;108.28;;;;;;;;;;5204031;27;20053;-85
2021/08/22 00:10:52;;;;;;;188.60;108.47;;;;;;;;;;5204827;27;20019;-86
2021/08/22 00:13:22;;;;;;;189.70;112.55;;;;;;;;;;5204243;27;20046;-85
2021/08/22 00:15:54;;;;;;;220.10;130.98;;;;;;;;;;5164396;27;20057;-84
2021/08/22 00:18:23;;;;;;;213.25;128.38;;;;;;;;;;5197867;27;20706;-85
2021/08/22 00:20:52;;;;;;;216.95;134.05;;;;;;;;;;5195346;27;20034;-84
2021/08/22 00:23:20;;;;;;;204.95;149.05;;;;;;;;;;5196303;27;20464;-85
2021/08/22 00:25:49;;;;;;;183.70;135.85;;;;;;;;;;5160904;27;20041;-84
2021/08/22 00:28:18;;;;;;;240.27;193.50;;;;;;;;;;5176197;27;20038;-86
2021/08/22 00:30:49;;;;;;;186.40;141.82;;;;;;;;;;5192663;27;20034;-85
2021/08/22 00:33:18;;;;;;;191.30;140.80;;;;;;;;;;5192430;27;20078;-86
2021/08/22 00:35:47;;;;;;;193.87;130.10;;;;;;;;;;5159559;27;20146;-85
2021/08/22 00:38:18;;;;;;;195.90;126.57;;;;;;;;;;5197557;27;20057;-84
2021/08/22 00:40:50;;;;;;;195.55;127.43;;;;;;;;;;5162191;27;20027;-84
2021/08/22 00:43:19;;;;;;;195.80;125.78;;;;;;;;;;5182607;27;20286;-85
2021/08/22 00:45:48;;;;;;;226.30;144.52;;;;;;;;;;5197892;27;20069;-85
2021/08/22 00:48:16;;;;;;;223.25;145.25;;;;;;;;;;5199775;27;20050;-85
2021/08/22 00:50:47;;;;;;;229.02;146.37;;;;;;;;;;5177860;27;20039;-86
2021/08/22 00:53:16;;;;;;;224.50;144.40;;;;;;;;;;5199788;27;20528;-86
2021/08/22 00:55:45;;;;;;;228.12;144.73;;;;;;;;;;5178952;27;20037;-85
2021/08/22 00:58:13;;;;;;;227.52;144.52;;;;;;;;;;5200157;27;20292;-84
2021/08/22 01:00:43;;;;;;;185.75;138.32;;;;;;;;;;5180714;27;20046;-85
2021/08/22 01:03:21;;;;;;;180.50;138.18;;;;;;;;;;5181446;27;20039;-85
2021/08/22 01:05:56;;;;;;;169.02;128.62;;;;;;;;;;5204186;27;20056;-85
2021/08/22 01:08:26;;;;;;;172.43;134.23;;;;;;;;;;5180347;27;20075;-85
2021/08/22 01:11:02;;;;;;;186.85;135.55;;;;;;;;;;5179166;27;20444;-85
2021/08/22 01:13:34;;;;;;;202.85;144.65;;;;;;;;;;5198492;27;20077;-85
2021/08/22 01:16:04;;;;;;;184.32;120.25;;;;;;;;;;5200073;27;20292;-85
2021/08/22 01:18:35;;;;;;;185.88;120.43;;;;;;;;;;5196166;27;20066;-85
2021/08/22 01:21:14;;;;;;;186.02;122.07;;;;;;;;;;5198179;27;20503;-85
2021/08/22 01:23:54;;;;;;;186.77;124.57;;;;;;;;;;5158964;27;20066;-85
2021/08/22 01:26:25;;;;;;;192.43;125.53;;;;;;;;;;5192190;27;20069;-85
2021/08/22 01:28:55;;;;;;;192.52;125.20;;;;;;;;;;5180357;27;20072;-84
2021/08/22 01:31:29;;;;;;;198.07;126.03;;;;;;;;;;5198083;27;20065;-85
2021/08/22 01:33:59;;;;;;;187.52;124.32;;;;;;;;;;5178809;27;20141;-85
2021/08/22 01:36:29;;;;;;;229.52;149.48;;;;;;;;;;5197280;27;20068;-85
2021/08/22 01:38:58;;;;;;;218.18;147.32;;;;;;;;;;5197664;27;20053;-84
2021/08/22 01:41:27;;;;;;;185.37;141.25;;;;;;;;;;5197636;27;20062;-85
2021/08/22 01:43:57;;;;;;;206.05;149.93;;;;;;;;;;5198386;27;20027;-85
2021/08/22 01:46:35;;;;;;;208.85;151.60;;;;;;;;;;5198519;27;20054;-85
2021/08/22 01:49:09;;;;;;;187.48;144.10;;;;;;;;;;5198224;27;20779;-85
2021/08/22 01:51:38;;;;;;;189.73;142.55;;;;;;;;;;5181666;27;20039;-85
2021/08/22 01:54:08;;;;;;;222.40;144.10;;;;;;;;;;5198528;27;20038;-84
2021/08/22 01:56:39;;;;;;;220.98;142.65;;;;;;;;;;5198785;27;20034;-85
2021/08/22 01:59:07;;;;;;;193.52;130.65;;;;;;;;;;5199365;27;20019;-84
2021/08/22 02:01:37;;;;;;;197.18;131.45;;;;;;;;;;5199714;27;20129;-86
2021/08/22 02:04:19;;;;;;;187.23;121.82;;;;;;;;;;5180163;27;20106;-85
2021/08/22 02:07:08;;;;;;;234.77;154.75;;;;;;;;;;5201061;27;20019;-84
2021/08/22 02:09:42;;;;;;;232.98;150.40;;;;;;;;;;5199315;27;20035;-85
2021/08/22 02:12:14;;;;;;;232.30;144.87;;;;;;;;;;5197109;27;20128;-86
2021/08/22 02:14:46;;;;;;;190.05;123.70;;;;;;;;;;5178851;27;20126;-86
2021/08/22 02:17:15;;;;;;;212.25;149.68;;;;;;;;;;5179271;27;20069;-85
2021/08/22 02:19:44;;;;;;;213.37;155.35;;;;;;;;;;5199882;27;20070;-85
2021/08/22 02:22:13;;;;;;;162.40;122.05;;;;;;;;;;5200237;27;20019;-85
2021/08/22 02:24:41;;;;;;;167.02;126.45;;;;;;;;;;5181194;27;20038;-86
2021/08/22 02:27:10;;;;;;;171.02;125.35;;;;;;;;;;5199835;27;20479;-85
2021/08/22 02:29:48;;;;;;;164.77;120.13;;;;;;;;;;5200382;27;20065;-85
2021/08/22 02:32:17;;;;;;;168.50;119.75;;;;;;;;;;5181354;27;20069;-84
2021/08/22 02:34:48;;;;;;;162.75;119.90;;;;;;;;;;5200503;27;20244;-84
2021/08/22 02:37:17;;;;;;;162.90;117.40;;;;;;;;;;5200003;27;20026;-85
2021/08/22 02:39:48;;;;;;;165.15;118.32;;;;;;;;;;5198820;27;20409;-85
2021/08/22 02:42:18;;;;;;;166.15;120.45;;;;;;;;;;5199851;27;20026;-85
2021/08/22 02:44:46;;;;;;;163.50;121.22;;;;;;;;;;5200837;27;20109;-85
2021/08/22 02:47:15;;;;;;;169.43;117.47;;;;;;;;;;5199112;27;20026;-86
2021/08/22 02:49:44;;;;;;;169.20;123.87;;;;;;;;;;5199974;27;20315;-84
2021/08/22 02:52:13;;;;;;;165.00;118.70;;;;;;;;;;5199964;27;20113;-84
2021/08/22 02:54:42;;;;;;;162.35;121.93;;;;;;;;;;5178968;27;20038;-85
2021/08/22 02:57:11;;;;;;;166.93;123.05;;;;;;;;;;5199429;27;20027;-85
2021/08/22 02:59:40;;;;;;;201.40;153.30;;;;;;;;;;5200244;27;20022;-85
2021/08/22 03:02:08;;;;;;;224.25;157.07;;;;;;;;;;5178709;27;20047;-85
2021/08/22 03:04:38;;;;;;;223.60;158.25;;;;;;;;;;5199200;27;20432;-85
2021/08/22 03:07:06;;;;;;;226.27;166.93;;;;;;;;;;5199990;27;20116;-85
2021/08/22 03:09:35;;;;;;;236.55;151.85;;;;;;;;;;5202175;27;20018;-85
2021/08/22 06:34:17;;;;;;;266.12;184.00;;;;;;;;;;5193199;27;20089;-88
2021/08/22 06:41:15;;;;;;;;;;;;;;;;;;5099061;28;20090;-88
2021/08/22 06:52:26;;;;;;;256.47;198.27;;;;;;;;;;5011266;28;20049;-85
2021/08/22 06:55:35;;;;;;;;;;;;;;;;;;;;;
2021/08/22 07:06:34;;;;;;;263.33;176.30;;;;;;;;;;4936509;29;20076;-85
2021/08/22 07:13:28;;;;;;;289.58;208.90;;;;;;;;;;5019434;28;20058;-84
2021/08/22 07:20:23;;;;;;;221.62;153.98;;;;;;;;;;5100198;28;20035;-85
2021/08/22 07:30:04;;;;;;;218.50;185.88;;;;;;;;;;5143291;27;20026;-87
2021/08/22 07:32:34;;;;;;;249.77;202.57;;;;;;;;;;5127486;27;20125;-87
2021/08/22 07:35:05;;;;;;;252.23;204.48;;;;;;;;;;5167581;27;20034;-83
2021/08/22 07:37:53;;;;;;;230.43;195.40;;;;;;;;;;5205327;27;20097;-86
2021/08/22 07:40:48;;;;;;;230.95;201.80;;;;;;;;;;5202229;27;20237;-87
2021/08/22 07:47:06;;;;;;;274.77;247.40;;;;;;;;;;5204753;27;20455;-84
2021/08/22 07:50:29;;;;;;;222.55;190.65;;;;;;;;;;5173681;27;20095;-89
2021/08/22 07:54:21;;;;;;;231.95;202.27;;;;;;;;;;5053089;28;20415;-88
2021/08/22 07:57:53;;;;;;;248.40;218.48;;;;;;;;;;4961211;28;20053;-88
2021/08/22 08:01:08;;;;;;;257.48;220.02;;;;;;;;;;4956905;27;20068;-86
2021/08/22 08:07:10;;;;;;;243.25;216.80;;;;;;;;;;5077391;28;20415;-90
2021/08/22 08:10:14;;;;;;;251.82;227.05;;;;;;;;;;5001972;28;20499;-89
2021/08/22 08:13:17;;;;;;;62.62;57.88;;;;;;;;;;5116945;27;20074;-87
2021/08/22 08:16:44;;;;;;;8.73;6.07;;;;;;;;;;5107571;27;20051;-88
2021/08/22 08:20:04;;;;;;;4.50;1.58;;;;;;;;;;5109664;27;20032;-89
2021/08/22 08:23:05;;;;;;;5.22;1.40;;;;;;;;;;5123111;27;20026;-88
2021/08/22 08:26:23;;;;;;;3.45;1.12;;;;;;;;;;5106253;27;20172;-85
2021/08/22 08:29:37;;;;;;;3.03;1.10;;;;;;;;;;5118096;27;20039;-88
2021/08/22 08:32:28;;;;;;;5.20;1.20;;;;;;;;;;5109862;27;20077;-85
2021/08/22 08:38:43;;;;;;;5.20;1.30;;;;;;;;;;5047533;28;20159;-86
2021/08/22 08:45:53;;;;;;;3.50;0.95;;;;;;;;;;5115005;28;20043;-86
2021/08/22 08:49:04;;;;;;;5.07;1.10;;;;;;;;;;5169382;27;20044;-90
2021/08/22 08:51:59;;;;;;;5.12;1.30;;;;;;;;;;5168878;27;20030;-88
2021/08/22 08:55:02;;;;;;;5.72;1.60;;;;;;;;;;5189148;27;20014;-88
2021/08/22 08:58:11;;;;;;;4.03;1.23;;;;;;;;;;5168952;27;20047;-85
2021/08/22 09:00:55;;;;;;;5.87;1.40;;;;;;;;;;5170582;27;20034;-86
2021/08/22 09:03:24;;;;;;;4.10;1.30;;;;;;;;;;5188015;27;20065;-89
2021/08/22 09:06:25;;;;;;;5.47;1.40;;;;;;;;;;5202055;27;20033;-86
2021/08/22 09:16:28;;;;;;;5.95;1.37;;;;;;;;;;5157927;27;20082;-88
2021/08/22 09:19:40;;;;;;;3.65;1.30;;;;;;;;;;5172973;27;20074;-89
2021/08/22 09:22:34;;;;;;;4.50;1.33;;;;;;;;;;5171165;27;20314;-89
2021/08/22 09:25:59;;;;;;;5.82;1.40;;;;;;;;;;5168174;27;20065;-86
2021/08/22 09:29:00;;;;;;;4.90;1.40;;;;;;;;;;5188013;27;20015;-87
2021/08/22 09:31:32;;;;;;;4.82;1.20;;;;;;;;;;5168767;27;20056;-88
2021/08/22 09:34:19;;;;;;;10.40;1.65;;;;;;;;;;5189120;27;20023;-84
2021/08/22 09:37:23;;;;;;;3.85;1.40;;;;;;;;;;5185168;27;20038;-88
2021/08/22 09:40:15;;;;;;;4.62;1.40;;;;;;;;;;5086361;28;20026;-87
2021/08/22 09:43:04;;;;;;;7.20;1.60;;;;;;;;;;5203954;27;20078;-86
2021/08/22 09:45:54;;;;;;;5.40;1.02;;;;;;;;;;5187203;27;20962;-89
2021/08/22 09:51:52;;;;;;;5.00;1.33;;;;;;;;;;5194500;27;20571;-88
2021/08/22 09:54:45;;;;;;;6.32;1.60;;;;;;;;;;5207022;27;20034;-90
2021/08/22 09:57:46;;;;;;;5.75;1.58;;;;;;;;;;5203370;27;20026;-88
2021/08/22 10:00:31;;;;;;;2.95;1.45;;;;;;;;;;5189484;27;20082;-88
2021/08/22 10:03:10;;;;;;;3.65;1.50;;;;;;;;;;5203097;27;20023;-89
2021/08/22 10:05:49;;;;;;;11.02;2.20;;;;;;;;;;5177419;27;20023;-91
2021/08/22 10:08:42;;;;;;;21.33;2.45;;;;;;;;;;5175384;27;20037;-91
2021/08/22 10:11:13;;;;;;;11.15;1.92;;;;;;;;;;5204502;27;20042;-88
2021/08/22 10:13:47;;;;;;;5.32;1.58;;;;;;;;;;5180740;27;20575;-84
2021/08/22 10:16:38;;;;;;;4.68;1.50;;;;;;;;;;5198269;27;20034;-89
2021/08/22 10:19:15;;;;;;;3.67;1.48;;;;;;;;;;5183812;27;20019;-87
2021/08/22 10:22:09;;;;;;;13.75;1.90;;;;;;;;;;5201423;27;20627;-90
2021/08/22 10:24:54;;;;;;;4.50;1.65;;;;;;;;;;5202217;27;20420;-91
2021/08/22 10:27:28;;;;;;;4.45;1.58;;;;;;;;;;5183937;27;20487;-83
2021/08/22 10:30:10;;;;;;;4.72;1.48;;;;;;;;;;5183297;27;20045;-86
2021/08/22 10:32:58;;;;;;;4.65;1.50;;;;;;;;;;5181701;27;20353;-87
2021/08/22 10:35:30;;;;;;;3.62;1.30;;;;;;;;;;5185008;27;20058;-84
2021/08/22 10:38:23;;;;;;;4.03;1.50;;;;;;;;;;5188880;27;20177;-89
2021/08/22 10:40:53;;;;;;;5.65;1.30;;;;;;;;;;5200439;27;20061;-86
2021/08/22 10:43:38;;;;;;;15.85;2.35;;;;;;;;;;5189263;27;20041;-88
2021/08/22 10:46:16;;;;;;;5.22;1.58;;;;;;;;;;5184260;27;20044;-85
2021/08/22 10:49:03;;;;;;;5.82;1.35;;;;;;;;;;5204975;27;20018;-87
2021/08/22 10:51:37;;;;;;;7.03;1.50;;;;;;;;;;5186478;27;20037;-88
2021/08/22 10:54:27;;;;;;;21.90;2.55;;;;;;;;;;5185123;27;20064;-88
2021/08/22 10:57:02;;;;;;;4.97;1.40;;;;;;;;;;5182951;27;20030;-87
2021/08/22 10:59:33;;;;;;;7.68;1.20;;;;;;;;;;5185967;27;20555;-88
2021/08/22 11:02:12;;;;;;;5.93;1.40;;;;;;;;;;5183776;27;20027;-86
2021/08/22 11:04:41;;;;;;;7.30;1.58;;;;;;;;;;5185548;27;20015;-85
2021/08/22 11:07:25;;;;;;;9.65;1.85;;;;;;;;;;5204818;27;20026;-88
2021/08/22 11:10:05;;;;;;;5.40;1.62;;;;;;;;;;5207357;27;20023;-92
2021/08/22 11:12:35;;;;;;;7.53;1.58;;;;;;;;;;5189638;27;20058;-88
2021/08/22 11:15:24;;;;;;;6.43;1.37;;;;;;;;;;5191803;27;20018;-91
2021/08/22 11:18:00;;;;;;;60.90;4.82;;;;;;;;;;5190008;27;20046;-87
2021/08/22 11:20:32;;;;;;;6.03;1.42;;;;;;;;;;5205993;27;20428;-88
2021/08/22 11:23:08;;;;;;;10.60;1.35;;;;;;;;;;5189984;27;20389;-88
2021/08/22 11:25:40;;;;;;;3.75;1.60;;;;;;;;;;5205963;27;20014;-86
2021/08/22 11:28:20;;;;;;;2.53;1.10;;;;;;;;;;5209696;27;20049;-85
2021/08/22 11:30:55;;;;;;;3.42;1.40;;;;;;;;;;5192609;27;20073;-89
2021/08/22 11:33:28;;;;;;;4.03;1.20;;;;;;;;;;5205503;27;20065;-84
2021/08/22 11:35:58;;;;;;;4.45;1.33;;;;;;;;;;5208705;27;20040;-85
2021/08/22 11:38:29;;;;;;;6.55;1.40;;;;;;;;;;5190152;27;20078;-90
2021/08/22 11:41:08;;;;;;;5.07;1.58;;;;;;;;;;5189002;27;20010;-89
2021/08/22 11:43:54;;;;;;;4.18;1.25;;;;;;;;;;5185777;27;20023;-88
2021/08/22 11:46:22;;;;;;;5.80;1.48;;;;;;;;;;5189685;27;20574;-89
2021/08/22 11:48:58;;;;;;;6.53;1.40;;;;;;;;;;5204198;27;20021;-85
2021/08/22 11:51:30;;;;;;;5.75;1.35;;;;;;;;;;5208041;27;20030;-86
2021/08/22 11:54:08;;;;;;;60.08;5.47;;;;;;;;;;5189728;27;20440;-83
2021/08/22 11:56:37;;;;;;;6.80;1.45;;;;;;;;;;5187336;27;20019;-90
2021/08/22 11:59:25;;;;;;;4.30;1.30;;;;;;;;;;5186895;27;20093;-83
2021/08/22 12:02:25;;;;;;;4.80;1.33;;;;;;;;;;5189319;27;20050;-88
2021/08/22 12:05:18;;;;;;;29.25;2.92;;;;;;;;;;5190993;27;20065;-85
2021/08/22 12:07:47;;;;;;;7.53;1.50;;;;;;;;;;5192100;27;20065;-86
2021/08/22 12:10:22;;;;;;;6.35;1.33;;;;;;;;;;5190459;27;20132;-89
2021/08/22 12:13:00;;;;;;;5.93;1.42;;;;;;;;;;5197435;27;20045;-91
2021/08/22 12:15:30;;;;;;;5.35;1.40;;;;;;;;;;5183889;27;20051;-88
2021/08/22 12:18:20;;;;;;;3.80;1.30;;;;;;;;;;5190822;27;20010;-86
2021/08/22 12:20:50;;;;;;;3.53;1.30;;;;;;;;;;5177909;27;20033;-87
2021/08/22 12:23:28;;;;;;;3.60;1.35;;;;;;;;;;5188305;27;20023;-88
2021/08/22 12:26:16;;;;;;;5.95;1.45;;;;;;;;;;5190917;27;20755;-88
2021/08/22 12:28:48;;;;;;;7.45;1.40;;;;;;;;;;5182828;27;20010;-89
2021/08/22 12:31:18;;;;;;;5.87;1.20;;;;;;;;;;5203766;27;20048;-90
2021/08/22 12:33:54;;;;;;;9.45;1.50;;;;;;;;;;5186996;27;20030;-89
2021/08/22 12:36:45;;;;;;;6.07;1.30;;;;;;;;;;5184145;27;20031;-85
2021/08/22 12:39:17;;;;;;;6.68;1.70;;;;;;;;;;5182315;27;20081;-85
2021/08/22 12:41:51;;;;;;;14.75;1.95;;;;;;;;;;5185896;27;20023;-83
2021/08/22 12:44:19;;;;;;;;;;;;;;;;;;5200200;27;20018;-88
2021/08/22 12:46:56;;;;;;;6.87;1.67;;;;;;;;;;5170090;27;19952;-84
2021/08/22 12:49:24;;;;;;;7.22;1.40;;;;;;;;;;5192621;27;20528;-89
2021/08/22 12:51:57;;;;;;;6.80;1.60;;;;;;;;;;5201118;27;20066;-91
2021/08/22 12:54:27;;;;;;;5.12;1.60;;;;;;;;;;5200409;27;20037;-90
2021/08/22 12:56:57;;;;;;;6.85;1.30;;;;;;;;;;5187321;27;20022;-83
2021/08/22 12:59:31;;;;;;;5.15;1.45;;;;;;;;;;5186662;27;20026;-88
2021/08/22 13:02:00;;;;;;;5.47;1.75;;;;;;;;;;5206164;27;20536;-88
2021/08/22 13:04:30;;;;;;;4.70;1.20;;;;;;;;;;5196714;27;20023;-86
2021/08/22 13:07:07;;;;;;;10.27;1.48;;;;;;;;;;5181879;27;20603;-85
2021/08/22 13:09:38;;;;;;;7.50;1.40;;;;;;;;;;5181792;27;20019;-91
2021/08/22 13:12:07;;;;;;;7.43;1.65;;;;;;;;;;5185507;27;20622;-85
2021/08/22 13:14:36;;;;;;;6.57;1.40;;;;;;;;;;5208814;27;20046;-87
2021/08/22 13:17:04;;;;;;;5.53;1.40;;;;;;;;;;5186910;27;20240;-89
2021/08/22 13:19:33;;;;;;;3.22;1.17;;;;;;;;;;5201729;27;20058;-86
2021/08/22 13:22:02;;;;;;;6.95;1.58;;;;;;;;;;5205281;27;20409;-85
2021/08/22 13:24:31;;;;;;;6.65;1.37;;;;;;;;;;5205698;27;20015;-87
2021/08/22 13:27:13;;;;;;;7.00;1.25;;;;;;;;;;5202303;27;20049;-87
2021/08/22 13:29:45;;;;;;;7.68;1.70;;;;;;;;;;5184763;27;20022;-86
2021/08/22 13:32:21;;;;;;;6.15;1.42;;;;;;;;;;5202116;27;20019;-87
2021/08/22 13:34:49;;;;;;;5.62;1.50;;;;;;;;;;5185856;27;20030;-84
2021/08/22 13:37:18;;;;;;;6.35;1.45;;;;;;;;;;5202905;27;20023;-88
2021/08/22 13:39:49;;;;;;;8.68;1.55;;;;;;;;;;5186373;27;20049;-83
2021/08/22 13:42:18;;;;;;;5.70;1.33;;;;;;;;;;5199011;27;20031;-83
2021/08/22 13:44:49;;;;;;;5.22;1.20;;;;;;;;;;5184658;27;20219;-89
2021/08/22 13:47:25;;;;;;;9.48;1.75;;;;;;;;;;5186854;27;20093;-84
2021/08/22 13:49:54;;;;;;;7.55;1.37;;;;;;;;;;5209834;27;20089;-87
2021/08/22 13:52:29;;;;;;;8.65;1.73;;;;;;;;;;5206669;27;20050;-88
2021/08/22 13:54:58;;;;;;;9.27;1.45;;;;;;;;;;5189596;27;20023;-88
2021/08/22 13:57:30;;;;;;;5.95;1.50;;;;;;;;;;5188736;27;20070;-90
2021/08/22 13:59:59;;;;;;;6.65;1.60;;;;;;;;;;5186557;27;20061;-84
2021/08/22 14:02:29;;;;;;;8.75;1.80;;;;;;;;;;5186958;27;20033;-88
2021/08/22 14:04:58;;;;;;;7.32;1.40;;;;;;;;;;5203794;27;20441;-88
2021/08/22 14:07:26;;;;;;;9.90;1.50;;;;;;;;;;5204009;27;20023;-87
2021/08/22 14:09:55;;;;;;;4.78;1.20;;;;;;;;;;5188191;27;20565;-86
2021/08/22 14:12:25;;;;;;;8.55;1.50;;;;;;;;;;5187790;27;20036;-84
2021/08/22 14:14:53;;;;;;;44.33;4.60;;;;;;;;;;5192356;27;20322;-82
2021/08/22 14:17:22;;;;;;;8.77;1.40;;;;;;;;;;5190826;27;20019;-88
2021/08/22 14:19:51;;;;;;;14.90;1.92;;;;;;;;;;5206421;27;20034;-86
2021/08/22 14:22:19;;;;;;;6.68;1.50;;;;;;;;;;5193246;27;20049;-83
2021/08/22 14:24:50;;;;;;;5.20;1.30;;;;;;;;;;5182645;27;20669;-84
2021/08/22 14:27:19;;;;;;;4.80;1.20;;;;;;;;;;5210627;27;20694;-84
2021/08/22 14:29:47;;;;;;;4.90;1.20;;;;;;;;;;5191694;27;20025;-87
2021/08/22 14:32:16;;;;;;;8.07;1.33;;;;;;;;;;5203164;27;20019;-86
2021/08/22 14:34:44;;;;;;;2.67;0.77;;;;;;;;;;5210339;27;20069;-87
2021/08/22 14:37:13;;;;;;;9.00;1.70;;;;;;;;;;5209876;27;20019;-84
2021/08/22 14:39:44;;;;;;;5.55;1.60;;;;;;;;;;5211570;27;20061;-84
2021/08/22 14:42:12;;;;;;;7.75;1.40;;;;;;;;;;5192017;27;20039;-90
2021/08/22 14:44:44;;;;;;;5.12;1.35;;;;;;;;;;5208621;27;20014;-83
2021/08/22 14:47:16;;;;;;;11.15;1.80;;;;;;;;;;5210819;27;20031;-88
2021/08/22 14:49:44;;;;;;;10.27;2.00;;;;;;;;;;5209215;27;20049;-86
2021/08/22 14:52:13;;;;;;;5.47;1.48;;;;;;;;;;5192040;27;20061;-86
